Time;durP1;ratioP1;P1;durP2;ratioP2;P2;SDS_P1;SDS_P2;PMS_P1;PMS_P2;Temp;Humidity;BMP_temperature;BMP_pressure;BME280_temperature;BME280_humidity;BME280_pressure;Samples;Min_cycle;Max_cycle;Signal;HPM_P1;HPM_P2
2024/03/14 00:00:58;;;;;;;14.45;4.78;;;;;;;;;;5032416;28;20256;-69
2024/03/14 00:03:24;;;;;;;10.90;5.00;;;;;;;;;;5029537;28;20021;-68
2024/03/14 00:05:50;;;;;;;18.60;4.75;;;;;;;;;;5032653;28;20500;-69
2024/03/14 00:08:15;;;;;;;9.00;4.10;;;;;;;;;;5031798;28;20021;-69
2024/03/14 00:10:41;;;;;;;8.97;4.40;;;;;;;;;;5031791;28;20024;-69
2024/03/14 00:13:06;;;;;;;12.35;4.68;;;;;;;;;;5032695;28;20671;-69
2024/03/14 00:15:31;;;;;;;8.27;4.00;;;;;;;;;;5033684;28;20032;-69
2024/03/14 00:17:57;;;;;;;9.65;5.40;;;;;;;;;;5030723;28;20766;-69
2024/03/14 00:20:22;;;;;;;17.27;5.65;;;;;;;;;;5031609;28;20017;-69
2024/03/14 00:22:47;;;;;;;10.18;4.35;;;;;;;;;;5028691;28;20491;-69
2024/03/14 00:25:13;;;;;;;11.05;4.68;;;;;;;;;;5026986;28;20021;-69
2024/03/14 00:27:38;;;;;;;9.60;4.27;;;;;;;;;;5031975;28;20539;-68
2024/03/14 00:30:08;;;;;;;11.98;4.32;;;;;;;;;;5031960;28;20261;-69
2024/03/14 00:32:33;;;;;;;15.50;4.97;;;;;;;;;;5027884;28;20484;-69
2024/03/14 00:34:58;;;;;;;11.27;4.15;;;;;;;;;;5032292;28;20041;-69
2024/03/14 00:37:24;;;;;;;9.00;5.10;;;;;;;;;;5030652;28;20370;-69
2024/03/14 00:39:49;;;;;;;10.93;5.30;;;;;;;;;;5035146;28;20259;-69
2024/03/14 00:42:14;;;;;;;15.75;4.80;;;;;;;;;;5034527;28;20636;-69
2024/03/14 00:44:39;;;;;;;8.73;4.93;;;;;;;;;;5035043;28;20498;-69
2024/03/14 00:47:05;;;;;;;8.95;4.82;;;;;;;;;;5026749;28;20292;-69
2024/03/14 00:49:30;;;;;;;11.02;4.70;;;;;;;;;;5030568;28;20014;-69
2024/03/14 00:51:56;;;;;;;12.47;4.57;;;;;;;;;;5030772;28;20096;-69
2024/03/14 00:54:21;;;;;;;10.77;4.20;;;;;;;;;;5029423;28;20267;-69
2024/03/14 00:56:48;;;;;;;8.73;4.67;;;;;;;;;;5036263;28;20052;-69
2024/03/14 00:59:13;;;;;;;13.35;4.97;;;;;;;;;;5030886;28;20249;-69
2024/03/14 01:01:42;;;;;;;10.87;4.13;;;;;;;;;;5034143;28;20476;-69
2024/03/14 01:04:07;;;;;;;14.18;5.68;;;;;;;;;;5020648;28;20276;-69
2024/03/14 01:06:32;;;;;;;13.60;5.77;;;;;;;;;;5027820;28;20032;-69
2024/03/14 01:08:57;;;;;;;12.23;4.87;;;;;;;;;;5032352;28;20743;-69
2024/03/14 01:11:23;;;;;;;10.63;5.83;;;;;;;;;;5030465;28;20257;-69
2024/03/14 01:13:48;;;;;;;10.25;5.32;;;;;;;;;;5027482;28;20248;-69
2024/03/14 01:16:13;;;;;;;10.30;4.90;;;;;;;;;;5037446;28;20354;-69
2024/03/14 01:18:40;;;;;;;7.35;4.50;;;;;;;;;;5031989;28;20280;-69
2024/03/14 01:21:08;;;;;;;8.88;4.70;;;;;;;;;;5025498;28;20076;-69
2024/03/14 01:23:33;;;;;;;12.32;4.38;;;;;;;;;;5031672;28;20045;-69
2024/03/14 01:25:58;;;;;;;7.57;4.55;;;;;;;;;;5030661;28;20050;-69
2024/03/14 01:28:23;;;;;;;12.50;4.77;;;;;;;;;;5027180;28;20029;-69
2024/03/14 01:30:48;;;;;;;8.73;4.30;;;;;;;;;;5030419;28;20252;-69
2024/03/14 01:33:15;;;;;;;14.93;4.45;;;;;;;;;;5030867;28;20252;-69
2024/03/14 01:35:41;;;;;;;9.32;4.70;;;;;;;;;;5025902;28;20013;-69
2024/03/14 01:38:06;;;;;;;8.65;5.43;;;;;;;;;;5029868;28;20180;-69
2024/03/14 01:40:32;;;;;;;6.85;4.30;;;;;;;;;;5028709;28;20040;-69
2024/03/14 01:42:58;;;;;;;9.13;4.32;;;;;;;;;;5031603;28;20115;-69
2024/03/14 01:45:23;;;;;;;9.48;4.72;;;;;;;;;;5033639;28;20029;-69
2024/03/14 01:47:49;;;;;;;11.05;5.22;;;;;;;;;;5026766;28;20025;-69
2024/03/14 01:50:14;;;;;;;11.23;4.43;;;;;;;;;;5026667;28;20017;-69
2024/03/14 01:52:39;;;;;;;16.05;4.43;;;;;;;;;;5030717;28;20283;-69
2024/03/14 01:55:05;;;;;;;13.60;5.03;;;;;;;;;;5033409;28;20018;-70
2024/03/14 01:57:31;;;;;;;11.95;4.68;;;;;;;;;;5031682;28;20025;-69
2024/03/14 01:59:58;;;;;;;10.57;4.43;;;;;;;;;;5029939;28;20092;-69
2024/03/14 02:02:23;;;;;;;6.95;3.95;;;;;;;;;;5027196;28;20018;-69
2024/03/14 02:04:48;;;;;;;8.98;4.30;;;;;;;;;;5029519;28;20021;-69
2024/03/14 02:07:14;;;;;;;8.30;4.00;;;;;;;;;;5027350;28;20477;-69
2024/03/14 02:09:40;;;;;;;9.25;4.15;;;;;;;;;;5029901;28;20379;-69
2024/03/14 02:12:06;;;;;;;15.45;4.43;;;;;;;;;;5025740;28;20113;-69
2024/03/14 02:14:31;;;;;;;10.15;4.05;;;;;;;;;;5029882;28;20028;-69
2024/03/14 02:16:59;;;;;;;8.32;4.63;;;;;;;;;;5034172;28;20021;-69
2024/03/14 02:19:24;;;;;;;12.57;5.32;;;;;;;;;;5029734;28;20020;-69
2024/03/14 02:21:50;;;;;;;9.90;4.97;;;;;;;;;;5029931;28;20036;-69
2024/03/14 02:24:17;;;;;;;12.52;5.75;;;;;;;;;;5032114;28;20318;-69
2024/03/14 02:26:42;;;;;;;10.15;4.50;;;;;;;;;;5031770;28;20020;-69
2024/03/14 02:29:07;;;;;;;8.38;4.95;;;;;;;;;;5022039;28;20018;-69
2024/03/14 02:31:33;;;;;;;9.63;4.30;;;;;;;;;;5023023;28;20060;-69
2024/03/14 02:33:58;;;;;;;9.90;4.15;;;;;;;;;;5028376;28;20053;-69
2024/03/14 02:36:23;;;;;;;10.13;4.43;;;;;;;;;;5030428;28;20026;-69
2024/03/14 02:38:49;;;;;;;13.75;4.78;;;;;;;;;;5031846;28;20298;-69
2024/03/14 02:41:14;;;;;;;12.82;4.82;;;;;;;;;;5029166;28;20021;-69
2024/03/14 02:46:45;;;;;;;9.48;4.03;;;;;;;;;;5032639;28;20322;-68
2024/03/14 02:49:13;;;;;;;11.60;6.90;;;;;;;;;;5017963;28;20396;-69
2024/03/14 02:51:38;;;;;;;8.30;4.30;;;;;;;;;;5023186;28;20048;-69
2024/03/14 02:54:05;;;;;;;10.10;4.50;;;;;;;;;;5029552;28;20053;-69
2024/03/14 02:56:30;;;;;;;11.32;4.70;;;;;;;;;;5030658;28;20296;-69
2024/03/14 02:58:55;;;;;;;10.45;3.42;;;;;;;;;;5035549;28;20013;-69
2024/03/14 03:01:22;;;;;;;11.57;4.47;;;;;;;;;;5026027;28;20104;-69
2024/03/14 03:03:47;;;;;;;14.30;4.18;;;;;;;;;;5029786;28;20268;-69
2024/03/14 03:06:12;;;;;;;8.23;4.00;;;;;;;;;;5035580;28;20473;-69
2024/03/14 03:08:37;;;;;;;11.98;4.57;;;;;;;;;;5031537;28;20035;-69
2024/03/14 03:11:03;;;;;;;9.30;4.00;;;;;;;;;;5029937;28;20100;-69
2024/03/14 03:13:28;;;;;;;8.40;4.28;;;;;;;;;;5026954;28;20264;-69
2024/03/14 03:15:54;;;;;;;12.45;5.15;;;;;;;;;;5034769;28;20021;-69
2024/03/14 03:18:19;;;;;;;12.35;4.25;;;;;;;;;;5026701;28;20036;-69
2024/03/14 03:20:44;;;;;;;8.10;4.85;;;;;;;;;;5031865;28;20037;-69
2024/03/14 03:23:09;;;;;;;9.02;4.20;;;;;;;;;;5026827;28;20473;-69
2024/03/14 03:25:35;;;;;;;9.90;4.60;;;;;;;;;;5028651;28;20400;-69
2024/03/14 03:28:02;;;;;;;12.50;4.45;;;;;;;;;;5029100;28;20388;-69
2024/03/14 03:30:27;;;;;;;11.55;4.70;;;;;;;;;;5025366;28;22016;-69
2024/03/14 03:32:52;;;;;;;10.13;4.53;;;;;;;;;;5030070;28;20021;-68
2024/03/14 03:35:21;;;;;;;12.67;4.93;;;;;;;;;;5032236;28;20022;-69
2024/03/14 03:37:47;;;;;;;11.65;4.85;;;;;;;;;;5031068;28;20264;-68
2024/03/14 03:40:15;;;;;;;10.40;4.85;;;;;;;;;;5032401;28;20024;-69
2024/03/14 03:42:41;;;;;;;9.27;4.65;;;;;;;;;;5035983;28;20391;-69
2024/03/14 03:45:09;;;;;;;12.40;4.47;;;;;;;;;;5035165;28;20056;-69
2024/03/14 03:47:35;;;;;;;8.00;4.20;;;;;;;;;;5024887;28;20040;-69
2024/03/14 03:50:00;;;;;;;12.35;4.80;;;;;;;;;;5030378;28;20013;-69
2024/03/14 03:52:26;;;;;;;15.17;5.20;;;;;;;;;;5030909;28;20057;-69
2024/03/14 03:54:53;;;;;;;9.10;4.72;;;;;;;;;;5034726;28;20272;-69
2024/03/14 03:57:18;;;;;;;8.48;4.97;;;;;;;;;;5032797;28;20029;-69
2024/03/14 03:59:44;;;;;;;12.73;5.30;;;;;;;;;;5036993;28;20384;-69
2024/03/14 04:02:10;;;;;;;13.00;5.15;;;;;;;;;;5032888;28;20029;-69
2024/03/14 04:04:36;;;;;;;10.02;5.05;;;;;;;;;;5031840;28;20025;-69
2024/03/14 04:07:03;;;;;;;12.90;5.30;;;;;;;;;;5032921;28;20021;-69
2024/03/14 04:09:28;;;;;;;16.73;5.10;;;;;;;;;;5031877;28;20029;-69
2024/03/14 04:11:53;;;;;;;9.47;4.43;;;;;;;;;;5031560;28;20100;-69
2024/03/14 04:14:18;;;;;;;10.40;4.43;;;;;;;;;;5031402;28;20773;-68
2024/03/14 04:16:43;;;;;;;12.97;4.50;;;;;;;;;;5029596;28;20353;-69
2024/03/14 04:19:10;;;;;;;16.10;5.40;;;;;;;;;;5030810;28;20627;-69
2024/03/14 04:21:36;;;;;;;8.55;5.18;;;;;;;;;;5030494;28;20029;-69
2024/03/14 04:24:01;;;;;;;17.13;5.82;;;;;;;;;;5034564;28;20021;-69
2024/03/14 04:26:27;;;;;;;12.50;5.77;;;;;;;;;;5034416;28;20403;-69
2024/03/14 04:28:52;;;;;;;8.73;4.53;;;;;;;;;;5032463;28;20264;-68
2024/03/14 04:31:19;;;;;;;8.93;5.00;;;;;;;;;;5033443;28;20110;-69
2024/03/14 04:33:44;;;;;;;6.43;2.67;;;;;;;;;;5036305;28;20070;-69
2024/03/14 04:36:09;;;;;;;14.13;4.97;;;;;;;;;;5027024;28;20017;-69
2024/03/14 04:38:35;;;;;;;14.17;5.90;;;;;;;;;;5025560;28;20757;-69
2024/03/14 04:41:00;;;;;;;9.32;5.68;;;;;;;;;;5029595;28;20287;-68
2024/03/14 04:43:25;;;;;;;11.85;4.80;;;;;;;;;;5026805;28;20030;-69
2024/03/14 04:45:52;;;;;;;10.38;4.82;;;;;;;;;;5027494;28;20025;-69
2024/03/14 04:48:17;;;;;;;11.52;5.50;;;;;;;;;;5025611;28;20025;-69
2024/03/14 04:50:43;;;;;;;11.13;5.25;;;;;;;;;;5026887;28;20056;-69
2024/03/14 04:53:09;;;;;;;9.52;5.00;;;;;;;;;;5026624;28;20059;-69
2024/03/14 04:55:35;;;;;;;11.45;5.93;;;;;;;;;;5023505;28;20460;-69
2024/03/14 04:58:00;;;;;;;16.38;5.65;;;;;;;;;;5023087;28;20037;-69
2024/03/14 05:00:25;;;;;;;9.40;4.53;;;;;;;;;;5022252;28;20080;-68
2024/03/14 05:02:51;;;;;;;9.75;5.45;;;;;;;;;;5023989;28;20260;-68
2024/03/14 05:05:17;;;;;;;11.48;6.05;;;;;;;;;;5029717;28;20025;-69
2024/03/14 05:07:42;;;;;;;13.93;6.20;;;;;;;;;;5026716;28;20021;-69
2024/03/14 05:10:08;;;;;;;14.55;4.55;;;;;;;;;;5028488;28;20028;-69
2024/03/14 05:12:33;;;;;;;9.77;4.43;;;;;;;;;;5026412;28;20033;-69
2024/03/14 05:14:59;;;;;;;16.38;5.10;;;;;;;;;;5024656;28;20040;-69
2024/03/14 05:17:24;;;;;;;19.02;5.57;;;;;;;;;;5023148;28;20511;-69
2024/03/14 05:19:50;;;;;;;12.40;3.93;;;;;;;;;;5025075;28;20083;-69
2024/03/14 05:22:15;;;;;;;10.88;5.78;;;;;;;;;;5030687;28;20794;-69
2024/03/14 05:24:41;;;;;;;15.13;6.20;;;;;;;;;;5029784;28;20083;-69
2024/03/14 05:27:08;;;;;;;13.05;5.32;;;;;;;;;;5030686;28;20464;-69
2024/03/14 05:29:33;;;;;;;15.63;5.30;;;;;;;;;;5030542;28;20025;-69
2024/03/14 05:31:59;;;;;;;9.60;5.65;;;;;;;;;;5028021;28;20014;-69
2024/03/14 05:34:24;;;;;;;11.57;4.67;;;;;;;;;;5022810;28;20013;-69
2024/03/14 05:36:49;;;;;;;12.33;4.77;;;;;;;;;;5027316;28;20272;-69
2024/03/14 05:39:15;;;;;;;10.98;5.65;;;;;;;;;;5027827;28;20263;-69
2024/03/14 05:41:41;;;;;;;15.65;5.82;;;;;;;;;;5024266;28;20124;-69
2024/03/14 05:44:06;;;;;;;11.95;6.28;;;;;;;;;;5023803;28;20472;-69
2024/03/14 05:46:31;;;;;;;13.80;5.50;;;;;;;;;;5022203;28;20068;-69
2024/03/14 05:48:56;;;;;;;12.07;5.60;;;;;;;;;;5018131;28;20624;-69
2024/03/14 05:51:21;;;;;;;9.73;4.53;;;;;;;;;;5022730;28;20259;-69
2024/03/14 05:53:47;;;;;;;10.55;5.00;;;;;;;;;;5022695;28;20275;-69
2024/03/14 05:56:12;;;;;;;18.50;6.07;;;;;;;;;;5018795;28;20026;-69
2024/03/14 05:58:37;;;;;;;13.27;5.35;;;;;;;;;;5016073;28;20253;-69
2024/03/14 06:01:03;;;;;;;11.75;5.53;;;;;;;;;;5017399;28;20068;-69
2024/03/14 06:03:28;;;;;;;7.68;4.68;;;;;;;;;;5019414;28;20021;-68
2024/03/14 06:05:54;;;;;;;14.77;5.47;;;;;;;;;;5017905;28;20049;-69
2024/03/14 06:08:19;;;;;;;15.20;6.32;;;;;;;;;;5015982;28;20017;-69
2024/03/14 06:10:45;;;;;;;9.95;5.57;;;;;;;;;;5018718;28;20473;-69
2024/03/14 06:13:10;;;;;;;18.55;7.03;;;;;;;;;;5018741;28;20013;-69
2024/03/14 06:15:35;;;;;;;9.90;4.97;;;;;;;;;;5020763;28;20036;-69
2024/03/14 06:18:02;;;;;;;11.47;4.10;;;;;;;;;;5021808;28;20028;-69
2024/03/14 06:20:27;;;;;;;12.88;5.10;;;;;;;;;;5023203;28;20367;-69
2024/03/14 06:22:52;;;;;;;3.57;2.77;;;;;;;;;;5031277;28;20447;-69
2024/03/14 06:25:17;;;;;;;9.63;4.63;;;;;;;;;;5025977;28;20314;-69
2024/03/14 06:27:42;;;;;;;11.63;4.97;;;;;;;;;;5024046;28;20642;-69
2024/03/14 06:30:11;;;;;;;13.95;5.57;;;;;;;;;;5029545;28;20283;-69
2024/03/14 06:32:37;;;;;;;13.73;4.75;;;;;;;;;;5022805;28;20542;-69
2024/03/14 06:35:06;;;;;;;5.80;3.58;;;;;;;;;;5023388;28;20037;-69
2024/03/14 06:37:32;;;;;;;11.82;3.95;;;;;;;;;;5018782;28;20018;-69
2024/03/14 06:39:57;;;;;;;7.88;2.95;;;;;;;;;;5021164;28;20090;-69
2024/03/14 06:42:23;;;;;;;15.73;5.23;;;;;;;;;;5028685;28;20152;-69
2024/03/14 06:44:48;;;;;;;7.47;3.85;;;;;;;;;;5022917;28;20317;-69
2024/03/14 06:47:13;;;;;;;11.47;5.13;;;;;;;;;;5026713;28;20037;-69
2024/03/14 06:49:42;;;;;;;12.73;4.38;;;;;;;;;;5022644;28;20286;-69
2024/03/14 06:52:09;;;;;;;12.48;4.88;;;;;;;;;;5023502;28;20017;-69
2024/03/14 06:54:34;;;;;;;9.80;4.30;;;;;;;;;;5025362;28;20021;-69
2024/03/14 06:57:00;;;;;;;13.15;5.65;;;;;;;;;;5020051;28;20028;-69
2024/03/14 06:59:26;;;;;;;14.20;4.85;;;;;;;;;;5024981;28;20028;-70
2024/03/14 07:01:52;;;;;;;8.50;4.65;;;;;;;;;;5028151;28;20481;-69
2024/03/14 07:04:18;;;;;;;10.10;4.20;;;;;;;;;;5028139;28;20074;-69
2024/03/14 07:06:43;;;;;;;10.38;4.72;;;;;;;;;;5025588;28;20021;-69
2024/03/14 07:09:09;;;;;;;10.03;4.73;;;;;;;;;;5022758;28;20018;-69
2024/03/14 07:11:35;;;;;;;10.13;4.50;;;;;;;;;;5024254;28;20252;-69
2024/03/14 07:14:00;;;;;;;11.27;4.27;;;;;;;;;;5024421;28;20018;-69
2024/03/14 07:16:25;;;;;;;15.60;5.28;;;;;;;;;;5026930;28;20253;-69
2024/03/14 07:18:53;;;;;;;6.43;4.13;;;;;;;;;;5031141;28;20034;-69
2024/03/14 07:21:18;;;;;;;12.60;5.35;;;;;;;;;;5034974;28;20012;-69
2024/03/14 07:23:47;;;;;;;8.50;4.35;;;;;;;;;;5025383;28;20026;-69
2024/03/14 07:26:16;;;;;;;11.35;4.03;;;;;;;;;;5034970;28;20017;-70
2024/03/14 07:28:42;;;;;;;5.53;3.08;;;;;;;;;;5030587;28;20025;-69
2024/03/14 07:31:07;;;;;;;6.20;2.83;;;;;;;;;;5029847;28;20045;-69
2024/03/14 07:33:32;;;;;;;6.07;3.63;;;;;;;;;;5027407;28;20060;-70
2024/03/14 07:35:58;;;;;;;8.73;4.50;;;;;;;;;;5032026;28;20436;-69
2024/03/14 07:38:27;;;;;;;6.10;3.67;;;;;;;;;;5026768;28;20049;-69
2024/03/14 07:40:52;;;;;;;7.22;1.55;;;;;;;;;;5033852;28;20025;-69
2024/03/14 07:43:20;;;;;;;9.07;3.15;;;;;;;;;;5030899;28;20117;-69
2024/03/14 07:45:46;;;;;;;4.95;1.83;;;;;;;;;;5029092;28;20029;-69
2024/03/14 07:48:11;;;;;;;3.08;1.58;;;;;;;;;;5033232;28;20093;-69
2024/03/14 07:50:36;;;;;;;6.13;3.28;;;;;;;;;;5029426;28;20101;-69
2024/03/14 07:53:02;;;;;;;3.57;2.43;;;;;;;;;;5033492;28;20029;-69
2024/03/14 07:55:27;;;;;;;9.52;3.60;;;;;;;;;;5028739;28;20284;-69
2024/03/14 07:57:52;;;;;;;12.17;5.83;;;;;;;;;;5034677;28;20131;-69
2024/03/14 08:00:21;;;;;;;5.30;3.37;;;;;;;;;;5026579;28;20292;-69
2024/03/14 08:02:54;;;;;;;5.13;2.40;;;;;;;;;;5031535;28;20044;-69
2024/03/14 08:05:19;;;;;;;3.78;2.40;;;;;;;;;;5028794;28;20373;-69
2024/03/14 08:07:45;;;;;;;6.57;3.60;;;;;;;;;;5031952;28;20076;-69
2024/03/14 08:10:11;;;;;;;7.47;4.60;;;;;;;;;;5026555;28;20774;-69
2024/03/14 08:12:37;;;;;;;5.65;2.40;;;;;;;;;;5030507;28;20712;-69
2024/03/14 08:15:17;;;;;;;12.20;3.58;;;;;;;;;;5031125;28;20102;-69
2024/03/14 08:17:44;;;;;;;8.88;3.30;;;;;;;;;;5030814;28;20125;-69
2024/03/14 08:20:09;;;;;;;5.72;2.92;;;;;;;;;;5030946;28;20053;-69
2024/03/14 08:22:37;;;;;;;6.25;3.70;;;;;;;;;;5023276;28;20543;-69
2024/03/14 08:25:15;;;;;;;4.13;1.80;;;;;;;;;;5031862;28;20021;-69
2024/03/14 08:27:40;;;;;;;3.85;2.50;;;;;;;;;;5036123;28;20025;-69
2024/03/14 08:30:06;;;;;;;6.03;3.27;;;;;;;;;;5032782;28;20128;-69
2024/03/14 08:32:32;;;;;;;7.65;3.80;;;;;;;;;;5027273;28;20271;-69
2024/03/14 08:34:57;;;;;;;4.47;2.63;;;;;;;;;;5025651;28;20021;-69
2024/03/14 08:37:25;;;;;;;3.05;2.00;;;;;;;;;;5031412;28;20101;-69
2024/03/14 08:39:50;;;;;;;4.00;2.33;;;;;;;;;;5026619;28;20112;-69
2024/03/14 08:42:23;;;;;;;5.00;1.93;;;;;;;;;;5022002;28;20456;-69
2024/03/14 08:44:50;;;;;;;4.20;1.58;;;;;;;;;;5032635;28;20310;-69
2024/03/14 08:47:15;;;;;;;3.30;2.03;;;;;;;;;;5025854;28;20028;-69
2024/03/14 08:49:40;;;;;;;7.93;3.65;;;;;;;;;;5030793;28;20047;-69
2024/03/14 08:52:06;;;;;;;4.87;2.90;;;;;;;;;;5028561;28;20499;-69
2024/03/14 08:54:33;;;;;;;2.80;2.45;;;;;;;;;;5029074;28;20335;-69
2024/03/14 08:56:58;;;;;;;4.90;2.67;;;;;;;;;;5027682;28;20025;-69
2024/03/14 08:59:28;;;;;;;5.55;2.42;;;;;;;;;;5026554;28;20092;-69
2024/03/14 09:01:54;;;;;;;4.82;2.72;;;;;;;;;;5027499;28;20022;-69
2024/03/14 09:04:21;;;;;;;5.65;2.63;;;;;;;;;;5030898;28;20392;-69
2024/03/14 09:06:46;;;;;;;8.30;3.50;;;;;;;;;;5030346;28;20045;-69
2024/03/14 09:09:26;;;;;;;6.73;2.67;;;;;;;;;;5032502;28;20610;-69
2024/03/14 09:11:52;;;;;;;8.70;3.80;;;;;;;;;;5032344;28;20307;-69
2024/03/14 09:14:17;;;;;;;6.20;3.00;;;;;;;;;;5032223;28;20025;-69
2024/03/14 09:16:44;;;;;;;1.40;0.93;;;;;;;;;;5023247;28;20818;-69
2024/03/14 09:19:09;;;;;;;7.65;2.97;;;;;;;;;;5025761;28;20013;-69
2024/03/14 09:21:36;;;;;;;3.63;2.07;;;;;;;;;;5030774;28;20381;-69
2024/03/14 09:24:01;;;;;;;7.85;2.50;;;;;;;;;;5028397;28;20259;-69
2024/03/14 09:26:26;;;;;;;8.87;1.93;;;;;;;;;;5029589;28;20021;-69
2024/03/14 09:28:53;;;;;;;5.13;2.80;;;;;;;;;;5031115;28;20333;-69
2024/03/14 09:31:19;;;;;;;12.30;2.25;;;;;;;;;;5031048;28;20351;-69
2024/03/14 09:33:44;;;;;;;4.82;1.65;;;;;;;;;;5029142;28;20088;-69
2024/03/14 09:36:09;;;;;;;4.13;2.13;;;;;;;;;;5028884;28;20022;-69
2024/03/14 09:38:35;;;;;;;5.68;2.90;;;;;;;;;;5027171;28;20083;-69
2024/03/14 09:41:00;;;;;;;3.53;1.90;;;;;;;;;;5028610;28;20036;-69
2024/03/14 09:43:25;;;;;;;4.32;1.80;;;;;;;;;;5030446;28;20033;-69
2024/03/14 09:45:53;;;;;;;4.78;1.95;;;;;;;;;;5022131;28;20108;-69
2024/03/14 09:48:19;;;;;;;2.97;1.50;;;;;;;;;;5030573;28;20036;-69
2024/03/14 09:50:47;;;;;;;3.70;1.92;;;;;;;;;;5032995;28;20024;-69
2024/03/14 09:53:14;;;;;;;4.18;2.67;;;;;;;;;;5030354;28;20097;-69
2024/03/14 09:55:39;;;;;;;5.57;2.00;;;;;;;;;;5021015;28;20026;-68
2024/03/14 09:58:06;;;;;;;4.03;1.90;;;;;;;;;;5020938;28;20083;-69
2024/03/14 10:00:31;;;;;;;3.08;1.83;;;;;;;;;;5023387;28;20326;-69
2024/03/14 10:02:58;;;;;;;5.60;2.28;;;;;;;;;;5023463;28;20472;-68
2024/03/14 10:05:24;;;;;;;7.28;3.78;;;;;;;;;;5026971;28;20021;-69
2024/03/14 10:07:50;;;;;;;5.47;3.45;;;;;;;;;;5029674;28;20029;-69
2024/03/14 10:10:15;;;;;;;3.03;1.77;;;;;;;;;;5028634;28;20022;-69
2024/03/14 10:12:49;;;;;;;3.58;2.40;;;;;;;;;;5030566;28;20044;-69
2024/03/14 10:15:16;;;;;;;4.07;1.90;;;;;;;;;;5029464;28;20746;-68
2024/03/14 10:17:42;;;;;;;5.57;3.03;;;;;;;;;;5028923;28;20017;-68
2024/03/14 10:20:08;;;;;;;12.15;3.30;;;;;;;;;;5023468;28;20115;-69
2024/03/14 10:22:35;;;;;;;5.82;3.08;;;;;;;;;;5024298;28;20568;-68
2024/03/14 10:25:01;;;;;;;5.45;3.10;;;;;;;;;;5026052;28;20025;-69
2024/03/14 10:27:26;;;;;;;5.20;2.03;;;;;;;;;;5028391;28;20051;-69
2024/03/14 10:29:55;;;;;;;7.88;2.92;;;;;;;;;;5015895;28;20069;-69
2024/03/14 10:32:20;;;;;;;9.05;1.80;;;;;;;;;;5027483;28;20104;-68
2024/03/14 10:34:45;;;;;;;6.23;2.10;;;;;;;;;;5030128;28;20121;-69
2024/03/14 10:37:14;;;;;;;4.05;2.30;;;;;;;;;;5030203;28;20029;-69
2024/03/14 10:39:42;;;;;;;5.82;2.95;;;;;;;;;;5028529;28;20021;-68
2024/03/14 10:42:07;;;;;;;4.50;2.80;;;;;;;;;;5020598;28;20022;-69
2024/03/14 10:44:33;;;;;;;5.25;2.60;;;;;;;;;;5022165;28;20104;-69
2024/03/14 10:46:59;;;;;;;9.40;2.65;;;;;;;;;;5027904;28;20025;-69
2024/03/14 10:49:24;;;;;;;2.97;1.45;;;;;;;;;;5026592;28;20027;-69
2024/03/14 10:51:49;;;;;;;3.40;2.05;;;;;;;;;;5025571;28;20021;-69
2024/03/14 10:54:16;;;;;;;6.88;2.47;;;;;;;;;;5025009;28;20026;-69
2024/03/14 10:56:44;;;;;;;4.85;2.22;;;;;;;;;;5029202;28;20384;-69
2024/03/14 10:59:10;;;;;;;2.90;1.50;;;;;;;;;;5023362;28;20041;-68
2024/03/14 11:01:35;;;;;;;2.45;1.45;;;;;;;;;;5029666;28;20444;-68
2024/03/14 11:04:02;;;;;;;5.63;2.13;;;;;;;;;;5029234;28;20045;-68
2024/03/14 11:06:33;;;;;;;7.88;2.03;;;;;;;;;;5026569;28;20105;-69
2024/03/14 11:08:59;;;;;;;4.05;2.10;;;;;;;;;;5025985;28;20025;-68
2024/03/14 11:11:25;;;;;;;4.68;2.20;;;;;;;;;;5029859;28;20295;-69
2024/03/14 11:13:51;;;;;;;2.95;1.80;;;;;;;;;;5023789;28;20032;-69
2024/03/14 11:16:17;;;;;;;15.32;1.73;;;;;;;;;;5026436;28;20022;-69
2024/03/14 11:18:52;;;;;;;4.30;2.42;;;;;;;;;;5029707;28;20025;-69
2024/03/14 11:21:18;;;;;;;8.65;2.42;;;;;;;;;;5023960;28;20037;-69
2024/03/14 11:23:44;;;;;;;7.60;2.53;;;;;;;;;;5027523;28;20029;-68
2024/03/14 11:26:13;;;;;;;2.95;1.50;;;;;;;;;;5030102;28;20492;-69
2024/03/14 11:28:40;;;;;;;11.13;3.13;;;;;;;;;;5024752;28;20545;-68
2024/03/14 11:31:06;;;;;;;5.30;2.10;;;;;;;;;;5021254;28;20366;-69
2024/03/14 11:33:32;;;;;;;3.25;1.88;;;;;;;;;;5027588;28;20028;-68
2024/03/14 11:35:58;;;;;;;6.88;2.33;;;;;;;;;;5023960;28;20021;-68
2024/03/14 11:38:24;;;;;;;4.07;1.95;;;;;;;;;;5027051;28;20421;-68
2024/03/14 11:40:52;;;;;;;1.48;1.15;;;;;;;;;;5022518;28;20028;-68
2024/03/14 11:43:20;;;;;;;4.20;2.42;;;;;;;;;;5026307;28;20021;-69
2024/03/14 11:45:45;;;;;;;4.43;1.85;;;;;;;;;;5023165;28;20030;-68
2024/03/14 11:48:11;;;;;;;5.32;2.67;;;;;;;;;;5026889;28;20033;-69
2024/03/14 11:50:38;;;;;;;3.50;1.85;;;;;;;;;;5021774;28;20544;-68
2024/03/14 11:53:06;;;;;;;2.10;1.50;;;;;;;;;;5029652;28;20029;-69
2024/03/14 11:55:32;;;;;;;4.55;2.75;;;;;;;;;;5027167;28;20017;-69
2024/03/14 11:57:58;;;;;;;1.92;1.45;;;;;;;;;;5031944;28;20276;-68
2024/03/14 12:00:26;;;;;;;6.38;2.00;;;;;;;;;;5026048;28;20472;-68
2024/03/14 12:02:54;;;;;;;5.28;3.00;;;;;;;;;;5031075;28;20095;-68
2024/03/14 12:05:27;;;;;;;2.55;1.65;;;;;;;;;;5028125;28;20044;-68
2024/03/14 12:07:54;;;;;;;4.10;1.75;;;;;;;;;;5032284;28;20017;-69
2024/03/14 12:10:20;;;;;;;5.28;1.55;;;;;;;;;;5031428;28;20024;-69
2024/03/14 12:12:45;;;;;;;4.35;2.13;;;;;;;;;;5032164;28;20022;-69
2024/03/14 12:15:11;;;;;;;8.27;1.38;;;;;;;;;;5028124;28;20101;-69
2024/03/14 12:17:36;;;;;;;5.50;2.60;;;;;;;;;;5030553;28;20017;-69
2024/03/14 12:20:05;;;;;;;5.13;2.40;;;;;;;;;;5033322;28;20021;-69
2024/03/14 12:22:39;;;;;;;4.68;2.05;;;;;;;;;;5032084;28;20017;-69
2024/03/14 12:25:05;;;;;;;8.05;2.30;;;;;;;;;;5022434;28;20436;-69
2024/03/14 12:27:30;;;;;;;4.65;2.50;;;;;;;;;;5021470;28;20021;-69
2024/03/14 12:29:58;;;;;;;3.00;1.85;;;;;;;;;;5029384;28;20064;-69
2024/03/14 12:32:24;;;;;;;3.03;1.90;;;;;;;;;;5025174;28;20014;-69
2024/03/14 12:34:50;;;;;;;4.28;1.45;;;;;;;;;;5020963;28;20022;-69
2024/03/14 12:37:19;;;;;;;2.25;1.10;;;;;;;;;;5022360;28;20380;-69
2024/03/14 12:39:47;;;;;;;4.32;1.20;;;;;;;;;;5028974;28;20033;-69
2024/03/14 12:42:13;;;;;;;5.40;2.60;;;;;;;;;;5025849;28;20511;-69
2024/03/14 12:44:38;;;;;;;4.32;1.30;;;;;;;;;;5024576;28;20029;-69
2024/03/14 12:47:03;;;;;;;4.43;1.42;;;;;;;;;;5029784;28;20187;-69
2024/03/14 12:49:29;;;;;;;3.67;1.65;;;;;;;;;;5023670;28;20022;-69
2024/03/14 12:51:55;;;;;;;3.92;1.80;;;;;;;;;;5028791;28;20030;-69
2024/03/14 12:54:21;;;;;;;3.55;1.30;;;;;;;;;;5027153;28;20366;-69
2024/03/14 12:56:51;;;;;;;8.23;1.95;;;;;;;;;;5027774;28;20048;-68
2024/03/14 12:59:16;;;;;;;4.28;2.25;;;;;;;;;;5025677;28;20041;-70
2024/03/14 13:01:43;;;;;;;6.20;2.30;;;;;;;;;;5027672;28;20025;-68
2024/03/14 13:04:10;;;;;;;12.32;2.10;;;;;;;;;;5024635;28;20025;-68
2024/03/14 13:06:36;;;;;;;2.78;1.60;;;;;;;;;;5023769;28;20582;-69
2024/03/14 13:09:14;;;;;;;4.10;2.08;;;;;;;;;;5020382;28;20032;-68
2024/03/14 13:11:39;;;;;;;3.47;1.40;;;;;;;;;;5024790;28;20415;-69
2024/03/14 13:14:15;;;;;;;3.20;2.20;;;;;;;;;;5030201;28;20135;-68
2024/03/14 13:16:41;;;;;;;3.42;1.48;;;;;;;;;;5031002;28;20275;-69
2024/03/14 13:19:11;;;;;;;4.88;1.58;;;;;;;;;;5029805;28;20025;-68
2024/03/14 13:21:43;;;;;;;2.70;1.20;;;;;;;;;;5027394;28;20103;-68
2024/03/14 13:24:09;;;;;;;2.42;1.15;;;;;;;;;;5020181;28;20025;-68
2024/03/14 13:26:34;;;;;;;1.85;1.15;;;;;;;;;;5026766;28;20464;-68
2024/03/14 13:28:59;;;;;;;4.57;1.10;;;;;;;;;;5027903;28;20555;-68
2024/03/14 13:31:25;;;;;;;2.60;1.07;;;;;;;;;;5022560;28;20252;-68
2024/03/14 13:33:51;;;;;;;5.72;1.75;;;;;;;;;;5021746;28;20272;-68
2024/03/14 13:36:16;;;;;;;3.58;1.40;;;;;;;;;;5023241;28;20082;-68
2024/03/14 13:38:42;;;;;;;2.85;0.80;;;;;;;;;;5021693;28;20041;-69
2024/03/14 13:41:08;;;;;;;2.92;1.30;;;;;;;;;;5026937;28;20033;-68
2024/03/14 13:43:33;;;;;;;4.20;0.70;;;;;;;;;;5025594;28;20521;-68
2024/03/14 13:45:59;;;;;;;2.10;0.70;;;;;;;;;;5022315;28;20041;-69
2024/03/14 13:48:26;;;;;;;0.80;0.65;;;;;;;;;;5022555;28;20813;-68
2024/03/14 13:50:52;;;;;;;1.50;0.90;;;;;;;;;;5013289;28;20018;-68
2024/03/14 13:53:17;;;;;;;2.70;0.63;;;;;;;;;;5016966;28;20037;-68
2024/03/14 13:55:47;;;;;;;1.58;0.70;;;;;;;;;;5023196;28;20542;-68
2024/03/14 13:58:12;;;;;;;1.35;1.10;;;;;;;;;;5028762;28;20172;-68
2024/03/14 14:00:49;;;;;;;2.88;0.65;;;;;;;;;;5018838;28;20645;-68
2024/03/14 14:03:19;;;;;;;1.67;0.60;;;;;;;;;;5022228;28;20025;-68
2024/03/14 14:05:44;;;;;;;2.87;1.33;;;;;;;;;;5033372;28;20017;-68
2024/03/14 14:08:10;;;;;;;1.33;0.77;;;;;;;;;;5029936;28;20064;-68
2024/03/14 14:10:35;;;;;;;3.45;1.05;;;;;;;;;;5028516;28;20275;-68
2024/03/14 14:13:00;;;;;;;0.80;0.60;;;;;;;;;;5027406;28;20467;-68
2024/03/14 14:15:26;;;;;;;2.27;0.70;;;;;;;;;;5018567;28;20064;-68
2024/03/14 14:17:52;;;;;;;4.95;1.30;;;;;;;;;;5027639;28;20253;-68
2024/03/14 14:20:17;;;;;;;5.27;1.33;;;;;;;;;;5025453;28;20033;-68
2024/03/14 14:22:43;;;;;;;1.57;0.97;;;;;;;;;;5029965;28;20422;-68
2024/03/14 14:25:08;;;;;;;2.67;0.82;;;;;;;;;;5017961;28;20259;-68
2024/03/14 14:27:34;;;;;;;2.42;0.82;;;;;;;;;;5026531;28;20029;-68
2024/03/14 14:29:59;;;;;;;2.78;0.73;;;;;;;;;;5029049;28;20021;-69
2024/03/14 14:32:24;;;;;;;4.10;1.27;;;;;;;;;;5025422;28;20017;-67
2024/03/14 14:34:50;;;;;;;4.47;0.70;;;;;;;;;;5029219;28;20080;-67